createdAt,value
2022-12-29T00:01:21.170Z,2.87
2022-12-29T00:04:14.941Z,4.50
2022-12-29T00:07:05.641Z,4.27
2022-12-29T00:09:53.263Z,3.37
2022-12-29T00:12:59.559Z,3.70
2022-12-29T00:15:48.532Z,3.00
2022-12-29T00:18:36.170Z,3.67
2022-12-29T00:21:45.009Z,4.03
2022-12-29T00:24:51.074Z,3.53
2022-12-29T00:28:01.597Z,2.87
2022-12-29T00:31:11.302Z,2.87
2022-12-29T00:34:17.438Z,3.47
2022-12-29T00:37:05.043Z,3.60
2022-12-29T00:40:30.957Z,3.50
2022-12-29T00:43:37.065Z,3.00
2022-12-29T00:46:24.696Z,2.83
2022-12-29T00:49:33.958Z,2.53
2022-12-29T00:52:21.908Z,2.73
2022-12-29T00:55:09.634Z,4.30
2022-12-29T00:57:57.088Z,3.07
2022-12-29T01:00:44.659Z,3.87
2022-12-29T01:03:33.989Z,4.37
2022-12-29T01:06:21.569Z,4.07
2022-12-29T01:09:29.224Z,2.63
2022-12-29T01:12:16.755Z,3.17
2022-12-29T01:15:11.760Z,2.73
2022-12-29T01:17:59.284Z,2.63
2022-12-29T01:20:46.889Z,2.73
2022-12-29T01:23:34.450Z,2.83
2022-12-29T01:26:22.385Z,2.37
2022-12-29T01:29:10.358Z,3.07
2022-12-29T01:31:57.956Z,2.77
2022-12-29T01:34:48.181Z,2.83
2022-12-29T01:37:35.797Z,4.37
2022-12-29T01:40:23.330Z,3.30
2022-12-29T01:43:15.211Z,4.00
2022-12-29T01:46:03.063Z,3.23
2022-12-29T01:49:13.375Z,4.23
2022-12-29T01:52:07.644Z,4.83
2022-12-29T01:54:58.444Z,4.03
2022-12-29T01:57:52.289Z,3.43
2022-12-29T02:00:40.421Z,2.63
2022-12-29T02:03:33.656Z,3.80
2022-12-29T02:06:49.386Z,3.30
2022-12-29T02:09:37.636Z,3.77
2022-12-29T02:12:26.190Z,3.93
2022-12-29T02:15:14.837Z,3.73
2022-12-29T02:18:35.780Z,2.90
2022-12-29T02:21:48.150Z,3.73
2022-12-29T02:25:22.165Z,4.13
2022-12-29T02:28:59.682Z,3.50
2022-12-29T02:32:43.515Z,2.90
2022-12-29T02:35:55.031Z,3.23
2022-12-29T02:39:01.864Z,3.23
2022-12-29T02:42:10.122Z,2.20
2022-12-29T02:45:14.004Z,3.57
2022-12-29T02:48:24.928Z,2.60
2022-12-29T02:51:57.008Z,2.47
2022-12-29T02:54:44.951Z,2.90
2022-12-29T02:57:36.357Z,3.83
2022-12-29T03:00:23.972Z,4.03
2022-12-29T03:03:42.892Z,3.80
2022-12-29T03:07:20.446Z,2.70
2022-12-29T03:10:51.791Z,2.70
2022-12-29T03:14:12.314Z,2.80
2022-12-29T03:17:11.469Z,2.87
2022-12-29T03:20:11.405Z,2.97
2022-12-29T03:23:04.342Z,4.33
2022-12-29T03:25:58.404Z,3.07
2022-12-29T03:28:57.694Z,3.43
2022-12-29T03:31:50.094Z,2.57
2022-12-29T03:34:39.939Z,3.27
2022-12-29T03:37:36.798Z,2.57
2022-12-29T03:40:26.737Z,4.57
2022-12-29T03:43:15.590Z,3.17
2022-12-29T03:46:03.130Z,3.73
2022-12-29T03:48:50.715Z,4.70
2022-12-29T03:51:38.302Z,3.40
2022-12-29T03:54:26.138Z,3.20
2022-12-29T03:57:13.628Z,4.37
2022-12-29T04:00:02.368Z,2.97
2022-12-29T04:02:50.119Z,3.43
2022-12-29T04:05:37.988Z,3.33
2022-12-29T04:08:25.557Z,2.67
2022-12-29T04:11:13.089Z,3.30
2022-12-29T04:14:00.686Z,3.57
2022-12-29T04:16:48.243Z,3.57
2022-12-29T04:19:35.874Z,3.63
2022-12-29T04:22:23.412Z,3.63
2022-12-29T04:25:11.262Z,3.67
2022-12-29T04:27:58.985Z,2.77
2022-12-29T04:30:47.901Z,3.83
2022-12-29T04:33:35.489Z,4.20
2022-12-29T04:36:29.502Z,3.97
2022-12-29T04:39:17.529Z,3.70
2022-12-29T04:42:05.950Z,3.27
2022-12-29T04:44:53.494Z,3.70
2022-12-29T04:47:40.994Z,3.80
2022-12-29T04:50:28.656Z,3.40
2022-12-29T04:53:17.856Z,3.97
2022-12-29T04:56:06.784Z,2.97
2022-12-29T04:58:54.296Z,3.83
2022-12-29T05:01:43.670Z,3.60
2022-12-29T05:04:31.234Z,3.17
2022-12-29T05:07:20.052Z,4.97
2022-12-29T05:10:09.230Z,3.63
2022-12-29T05:12:56.808Z,3.93
2022-12-29T05:16:02.548Z,3.00
2022-12-29T05:18:50.059Z,3.90
2022-12-29T05:21:37.638Z,3.87
2022-12-29T05:24:25.218Z,2.93
2022-12-29T05:27:12.743Z,3.70
2022-12-29T05:30:00.447Z,2.70
2022-12-29T05:32:47.997Z,4.73
2022-12-29T05:35:35.621Z,4.57
2022-12-29T05:38:23.247Z,3.23
2022-12-29T05:41:11.190Z,4.20
2022-12-29T05:43:58.797Z,3.77
2022-12-29T05:46:46.351Z,4.40
2022-12-29T05:49:34.063Z,3.07
2022-12-29T05:52:21.605Z,3.13
2022-12-29T05:55:10.294Z,3.77
2022-12-29T05:57:58.223Z,3.40
2022-12-29T06:00:46.185Z,3.87
2022-12-29T06:03:33.741Z,3.87
2022-12-29T06:06:21.461Z,3.33
2022-12-29T06:09:12.068Z,4.13
2022-12-29T06:11:59.631Z,3.20
2022-12-29T06:14:47.143Z,2.23
2022-12-29T06:17:34.786Z,3.03
2022-12-29T06:20:22.266Z,3.33
2022-12-29T06:23:10.390Z,3.00
2022-12-29T06:25:58.540Z,2.63
2022-12-29T06:28:46.136Z,4.03
2022-12-29T06:31:33.725Z,3.13
2022-12-29T06:34:21.493Z,4.07
2022-12-29T06:37:09.097Z,3.93
2022-12-29T06:39:56.736Z,3.93
2022-12-29T06:42:44.223Z,3.77
2022-12-29T06:45:31.799Z,5.47
2022-12-29T06:48:19.390Z,4.70
2022-12-29T06:51:06.935Z,4.57
2022-12-29T06:53:54.452Z,4.63
2022-12-29T06:56:42.118Z,3.87
2022-12-29T06:59:29.701Z,5.00
2022-12-29T07:02:19.422Z,5.57
2022-12-29T07:05:08.491Z,3.93
2022-12-29T07:07:56.700Z,4.00
2022-12-29T07:10:44.217Z,3.43
2022-12-29T07:13:31.841Z,3.33
2022-12-29T07:16:19.523Z,3.60
2022-12-29T07:19:07.112Z,4.33
2022-12-29T07:21:56.287Z,3.07
2022-12-29T07:24:44.415Z,3.97
2022-12-29T07:27:31.971Z,3.60
2022-12-29T07:30:19.876Z,5.60
2022-12-29T07:33:07.607Z,4.63
2022-12-29T07:35:55.104Z,5.90
2022-12-29T07:38:43.913Z,3.83
2022-12-29T07:41:31.561Z,4.13
2022-12-29T07:44:19.150Z,4.30
2022-12-29T07:47:06.678Z,5.20
2022-12-29T07:49:54.245Z,4.37
2022-12-29T07:52:41.725Z,5.73
2022-12-29T07:55:29.832Z,4.47
2022-12-29T07:58:17.419Z,5.37
2022-12-29T08:01:06.555Z,5.43
2022-12-29T08:03:57.506Z,4.53
2022-12-29T08:06:46.870Z,5.60
2022-12-29T08:09:34.421Z,7.17
2022-12-29T08:12:22.060Z,6.13
2022-12-29T08:15:13.114Z,6.87
2022-12-29T08:18:01.198Z,6.37
2022-12-29T08:20:52.527Z,5.40
2022-12-29T08:23:43.015Z,5.17
2022-12-29T08:26:30.608Z,6.47
2022-12-29T08:29:18.193Z,4.53
2022-12-29T08:32:05.923Z,5.43
2022-12-29T08:34:53.472Z,6.07
2022-12-29T08:37:40.985Z,4.73
2022-12-29T08:40:28.444Z,4.53
2022-12-29T08:43:18.672Z,4.33
2022-12-29T08:46:06.474Z,4.53
2022-12-29T08:48:55.219Z,5.30
2022-12-29T08:51:42.799Z,3.97
2022-12-29T08:54:30.284Z,4.90
2022-12-29T08:57:17.847Z,4.27
2022-12-29T09:00:07.062Z,3.97
2022-12-29T09:02:54.722Z,4.73
2022-12-29T09:05:42.435Z,4.43
2022-12-29T09:08:30.067Z,5.30
2022-12-29T09:11:22.144Z,4.03
2022-12-29T09:14:09.996Z,4.07
2022-12-29T09:17:16.281Z,4.73
2022-12-29T09:20:04.960Z,4.00
2022-12-29T09:22:52.646Z,3.67
2022-12-29T09:25:40.174Z,3.67
2022-12-29T09:28:30.075Z,5.60
2022-12-29T09:31:17.655Z,3.87
2022-12-29T09:34:05.200Z,4.83
2022-12-29T09:36:52.740Z,4.93
2022-12-29T09:39:40.192Z,5.03
2022-12-29T09:43:05.543Z,3.40
2022-12-29T09:46:17.103Z,4.63
2022-12-29T09:49:41.014Z,5.17
2022-12-29T09:52:41.736Z,5.20
2022-12-29T09:55:46.036Z,4.40
2022-12-29T09:58:53.396Z,3.87
2022-12-29T10:02:05.105Z,2.70
2022-12-29T10:04:53.272Z,4.93
2022-12-29T10:08:01.317Z,4.07
2022-12-29T10:11:24.930Z,3.63
2022-12-29T10:15:03.125Z,4.07
2022-12-29T10:18:12.098Z,4.37
2022-12-29T10:21:32.310Z,3.23
2022-12-29T10:24:23.195Z,4.63
2022-12-29T10:27:18.161Z,3.77
2022-12-29T10:30:06.620Z,3.93
2022-12-29T10:33:00.331Z,3.90
2022-12-29T10:35:49.702Z,3.93
2022-12-29T10:39:18.020Z,4.20
2022-12-29T10:42:22.207Z,2.23
2022-12-29T10:45:17.858Z,3.40
2022-12-29T10:48:25.911Z,3.83
2022-12-29T10:51:26.259Z,3.90
2022-12-29T10:54:38.996Z,3.27
2022-12-29T10:57:46.638Z,4.23
2022-12-29T11:00:35.225Z,4.20
2022-12-29T11:03:39.909Z,3.77
2022-12-29T11:06:30.410Z,3.87
2022-12-29T11:09:42.020Z,3.37
2022-12-29T11:12:32.436Z,3.17
2022-12-29T11:15:20.185Z,3.20
2022-12-29T11:18:41.046Z,3.17
2022-12-29T11:21:43.406Z,3.53
2022-12-29T11:24:32.046Z,3.93
2022-12-29T11:27:26.457Z,2.60
2022-12-29T11:30:31.325Z,3.40
2022-12-29T11:33:18.929Z,3.23
2022-12-29T11:36:23.445Z,3.60
2022-12-29T11:39:54.247Z,3.90
2022-12-29T11:43:00.017Z,3.33
2022-12-29T11:45:48.878Z,4.47
2022-12-29T11:48:44.004Z,3.50
2022-12-29T11:51:45.973Z,3.57
2022-12-29T11:54:38.869Z,3.77
2022-12-29T11:57:27.050Z,3.00
2022-12-29T12:00:27.238Z,3.60
2022-12-29T12:03:25.839Z,2.87
2022-12-29T12:06:22.134Z,2.63
2022-12-29T12:09:24.163Z,2.73
2022-12-29T12:12:35.780Z,3.03
2022-12-29T12:16:00.570Z,3.23
2022-12-29T12:19:02.522Z,3.20
2022-12-29T12:22:02.281Z,2.90
2022-12-29T12:25:38.348Z,3.80
2022-12-29T12:29:07.136Z,2.63
2022-12-29T12:32:06.947Z,3.00
2022-12-29T12:34:54.575Z,2.13
2022-12-29T12:38:01.696Z,2.53
2022-12-29T12:41:39.899Z,1.80
2022-12-29T12:44:46.245Z,1.50
2022-12-29T12:48:22.647Z,1.77
2022-12-29T12:51:44.092Z,1.70
2022-12-29T12:55:07.631Z,1.27
2022-12-29T12:58:30.676Z,2.03
2022-12-29T13:01:43.314Z,1.77
2022-12-29T13:04:48.623Z,1.83
2022-12-29T13:08:06.339Z,2.47
2022-12-29T13:11:22.226Z,2.20
2022-12-29T13:14:59.886Z,1.50
2022-12-29T13:18:19.904Z,1.73
2022-12-29T13:22:06.864Z,2.23
2022-12-29T13:25:19.756Z,1.70
2022-12-29T13:28:21.259Z,1.80
2022-12-29T13:31:30.311Z,1.30
2022-12-29T13:34:54.126Z,1.47
2022-12-29T13:38:04.689Z,1.63
2022-12-29T13:41:00.735Z,2.00
2022-12-29T13:43:52.096Z,1.47
2022-12-29T13:46:45.265Z,1.67
2022-12-29T13:49:35.384Z,2.03
2022-12-29T13:52:59.539Z,1.83
2022-12-29T13:56:08.354Z,1.70
2022-12-29T13:59:41.444Z,2.07
2022-12-29T14:02:39.136Z,1.40
2022-12-29T14:05:32.796Z,1.60
2022-12-29T14:08:20.492Z,1.77
2022-12-29T14:11:15.742Z,1.83
2022-12-29T14:14:29.395Z,2.33
2022-12-29T14:17:22.274Z,3.00
2022-12-29T14:20:24.122Z,1.80
2022-12-29T14:23:11.702Z,2.70
2022-12-29T14:26:07.384Z,1.80
2022-12-29T14:29:01.313Z,2.30
2022-12-29T14:31:56.160Z,2.00
2022-12-29T14:34:51.795Z,1.83
2022-12-29T14:37:40.224Z,2.60
2022-12-29T14:40:28.444Z,1.80
2022-12-29T14:43:28.599Z,1.97
2022-12-29T14:46:16.337Z,1.77
2022-12-29T14:49:04.318Z,1.67
2022-12-29T14:52:04.354Z,1.70
2022-12-29T14:55:20.623Z,1.60
2022-12-29T14:58:59.790Z,2.13
2022-12-29T15:01:56.902Z,1.87
2022-12-29T15:04:48.510Z,2.13
2022-12-29T15:07:37.568Z,2.17
2022-12-29T15:10:33.570Z,2.87
2022-12-29T15:13:49.800Z,2.37
2022-12-29T15:16:38.314Z,2.53
2022-12-29T15:19:28.233Z,2.83
2022-12-29T15:22:16.629Z,2.80
2022-12-29T15:25:05.161Z,3.03
2022-12-29T15:28:07.677Z,2.77
2022-12-29T15:31:29.472Z,2.60
2022-12-29T15:34:22.590Z,1.80
2022-12-29T15:37:10.997Z,1.87
2022-12-29T15:39:59.033Z,2.63
2022-12-29T15:43:15.628Z,2.13
2022-12-29T15:46:04.039Z,2.57
2022-12-29T15:48:52.481Z,2.43
2022-12-29T15:51:44.915Z,2.23
2022-12-29T15:54:33.435Z,2.60
2022-12-29T15:57:28.448Z,2.57
2022-12-29T16:00:35.243Z,2.53
2022-12-29T16:03:27.799Z,2.13
2022-12-29T16:06:47.575Z,2.73
2022-12-29T16:09:45.329Z,1.90
2022-12-29T16:12:38.050Z,1.37
2022-12-29T16:15:28.948Z,2.23
2022-12-29T16:18:29.917Z,1.93
2022-12-29T16:21:32.716Z,2.13
2022-12-29T16:24:26.517Z,2.27
2022-12-29T16:27:33.739Z,2.90
2022-12-29T16:30:32.850Z,2.70
2022-12-29T16:33:56.146Z,2.83
2022-12-29T16:37:04.374Z,2.20
2022-12-29T16:39:52.308Z,2.80
2022-12-29T16:42:39.985Z,2.50
2022-12-29T16:45:46.984Z,2.07
2022-12-29T16:48:51.561Z,2.53
2022-12-29T16:51:39.348Z,3.60
2022-12-29T16:54:36.483Z,2.73
2022-12-29T16:57:35.635Z,3.13
2022-12-29T17:00:28.048Z,2.50
2022-12-29T17:03:17.193Z,2.37
2022-12-29T17:06:05.937Z,2.77
2022-12-29T17:08:54.366Z,2.00
2022-12-29T17:12:02.566Z,2.03
2022-12-29T17:15:09.429Z,2.70
2022-12-29T17:17:57.651Z,2.53
2022-12-29T17:20:45.317Z,2.87
2022-12-29T17:23:35.349Z,2.13
2022-12-29T17:26:23.005Z,2.77
2022-12-29T17:29:33.120Z,3.03
2022-12-29T17:32:20.755Z,1.77
2022-12-29T17:35:20.266Z,2.27
2022-12-29T17:38:35.115Z,2.90
2022-12-29T17:41:22.696Z,2.40
2022-12-29T17:44:20.122Z,2.83
2022-12-29T17:47:16.919Z,2.93
2022-12-29T17:50:05.738Z,2.27
2022-12-29T17:53:01.178Z,2.97
2022-12-29T17:55:49.410Z,1.87
2022-12-29T17:58:37.395Z,2.63
2022-12-29T18:01:29.951Z,1.63
2022-12-29T18:04:21.611Z,1.80
2022-12-29T18:07:12.606Z,1.50
2022-12-29T18:10:00.074Z,2.20
2022-12-29T18:12:54.287Z,2.03
2022-12-29T18:15:42.073Z,3.23
2022-12-29T18:18:30.041Z,1.83
2022-12-29T18:21:21.251Z,2.40
2022-12-29T18:24:15.458Z,2.33
2022-12-29T18:27:14.911Z,3.43
2022-12-29T18:30:02.572Z,2.93
2022-12-29T18:32:50.590Z,3.03
2022-12-29T18:35:59.030Z,2.57
2022-12-29T18:38:47.574Z,1.73
2022-12-29T18:41:35.258Z,2.27
2022-12-29T18:44:24.727Z,5.43
2022-12-29T18:47:12.253Z,5.43
2022-12-29T18:50:00.018Z,6.30
2022-12-29T18:52:47.649Z,3.80
2022-12-29T18:55:35.965Z,4.63
2022-12-29T18:58:26.792Z,3.97
2022-12-29T19:01:26.274Z,4.23
2022-12-29T19:04:15.677Z,3.20
2022-12-29T19:07:03.503Z,2.83
2022-12-29T19:09:51.413Z,2.97
2022-12-29T19:12:39.010Z,2.63
2022-12-29T19:15:29.907Z,2.83
2022-12-29T19:21:29.877Z,3.23
2022-12-29T19:24:17.474Z,3.63
2022-12-29T19:27:05.250Z,3.27
2022-12-29T19:29:53.239Z,2.83
2022-12-29T19:32:41.887Z,4.60
2022-12-29T19:35:31.177Z,3.10
2022-12-29T19:38:20.011Z,4.20
2022-12-29T19:41:08.563Z,3.27
2022-12-29T19:43:56.764Z,2.60
2022-12-29T19:46:44.840Z,3.17
2022-12-29T19:49:32.791Z,2.57
2022-12-29T19:52:20.785Z,2.67
2022-12-29T19:55:12.293Z,4.03
2022-12-29T19:57:59.967Z,3.70
2022-12-29T20:00:49.415Z,3.27
2022-12-29T20:03:39.583Z,4.30
2022-12-29T20:06:27.499Z,2.10
2022-12-29T20:09:15.193Z,2.63
2022-12-29T20:12:02.986Z,2.40
2022-12-29T20:14:52.651Z,3.53
2022-12-29T20:20:47.983Z,2.50
2022-12-29T20:23:39.165Z,2.50
2022-12-29T20:26:30.499Z,3.00
2022-12-29T20:29:20.386Z,5.50
2022-12-29T20:32:21.429Z,3.47
2022-12-29T20:35:49.328Z,3.57
2022-12-29T20:38:44.637Z,5.07
2022-12-29T20:41:32.224Z,3.33
2022-12-29T20:44:23.434Z,4.60
2022-12-29T20:47:11.335Z,2.93
2022-12-29T20:49:59.646Z,3.27
2022-12-29T20:52:47.341Z,3.20
2022-12-29T20:55:35.656Z,4.03
2022-12-29T20:58:24.348Z,4.13
2022-12-29T21:01:17.794Z,3.83
2022-12-29T21:04:06.740Z,5.40
2022-12-29T21:06:54.701Z,5.97
2022-12-29T21:09:42.718Z,3.27
2022-12-29T21:12:30.528Z,5.80
2022-12-29T21:15:18.683Z,5.10
2022-12-29T21:18:06.479Z,4.77
2022-12-29T21:20:59.175Z,5.80
2022-12-29T21:23:47.183Z,4.90
2022-12-29T21:26:35.279Z,5.97
2022-12-29T21:29:23.515Z,5.43
2022-12-29T21:32:11.689Z,4.13
2022-12-29T21:34:59.229Z,3.10
2022-12-29T21:37:46.843Z,3.93
2022-12-29T21:40:38.399Z,4.03
2022-12-29T21:43:26.362Z,5.57
2022-12-29T21:46:17.158Z,5.70
2022-12-29T21:49:07.096Z,5.17
2022-12-29T21:51:57.564Z,5.37
2022-12-29T21:55:00.563Z,4.93
2022-12-29T21:58:11.284Z,4.07
2022-12-29T22:01:18.029Z,5.37
2022-12-29T22:04:24.607Z,5.73
2022-12-29T22:07:31.631Z,4.70
2022-12-29T22:10:38.380Z,3.47
2022-12-29T22:13:26.705Z,4.47
2022-12-29T22:16:15.779Z,4.77
2022-12-29T22:19:04.289Z,4.83
2022-12-29T22:21:51.749Z,5.17
2022-12-29T22:24:39.327Z,5.03
2022-12-29T22:27:27.644Z,4.10
2022-12-29T22:30:16.479Z,4.10
2022-12-29T22:33:04.610Z,6.30
2022-12-29T22:35:52.275Z,4.07
2022-12-29T22:38:39.969Z,4.27
2022-12-29T22:41:27.971Z,3.73
2022-12-29T22:44:15.483Z,4.57
2022-12-29T22:47:03.205Z,4.57
2022-12-29T22:49:51.466Z,4.60
2022-12-29T22:52:39.334Z,5.33
2022-12-29T22:55:27.319Z,4.37
2022-12-29T22:58:15.269Z,5.50
2022-12-29T23:01:05.897Z,6.17
2022-12-29T23:04:01.076Z,3.77
2022-12-29T23:07:01.401Z,5.33
2022-12-29T23:09:49.414Z,5.13
2022-12-29T23:12:37.502Z,7.50
2022-12-29T23:15:25.263Z,4.63
2022-12-29T23:18:13.083Z,3.87
2022-12-29T23:21:03.327Z,4.87
2022-12-29T23:23:53.785Z,5.23
2022-12-29T23:26:45.391Z,5.60
2022-12-29T23:29:33.086Z,5.57
2022-12-29T23:32:22.050Z,5.80
2022-12-29T23:35:10.143Z,4.37
2022-12-29T23:37:58.346Z,5.27
2022-12-29T23:40:46.075Z,7.33
2022-12-29T23:43:35.354Z,6.43
2022-12-29T23:46:28.210Z,6.60
2022-12-29T23:49:15.889Z,7.97
2022-12-29T23:52:03.807Z,7.00
2022-12-29T23:54:51.851Z,5.50
2022-12-29T23:57:39.624Z,5.30
